sensor_id;sensor_type;location;lat;lon;timestamp;P1;durP1;ratioP1;P2;durP2;ratioP2
80694;SDS011;70059;42.702;23.312;2024-01-10T00:02:01;8.40;;;6.88;;
80694;SDS011;70059;42.702;23.312;2024-01-10T00:04:26;8.27;;;7.25;;
80694;SDS011;70059;42.702;23.312;2024-01-10T00:06:52;10.25;;;6.07;;
80694;SDS011;70059;42.702;23.312;2024-01-10T00:09:18;8.27;;;6.30;;
80694;SDS011;70059;42.702;23.312;2024-01-10T00:11:43;8.35;;;7.07;;
80694;SDS011;70059;42.702;23.312;2024-01-10T00:14:09;12.15;;;7.72;;
80694;SDS011;70059;42.702;23.312;2024-01-10T00:16:35;8.95;;;7.25;;
80694;SDS011;70059;42.702;23.312;2024-01-10T00:19:01;8.80;;;6.70;;
80694;SDS011;70059;42.702;23.312;2024-01-10T00:21:27;7.15;;;6.15;;
80694;SDS011;70059;42.702;23.312;2024-01-10T00:23:53;7.90;;;6.97;;
80694;SDS011;70059;42.702;23.312;2024-01-10T00:26:19;8.00;;;6.30;;
80694;SDS011;70059;42.702;23.312;2024-01-10T00:28:44;9.10;;;6.50;;
80694;SDS011;70059;42.702;23.312;2024-01-10T00:31:13;8.43;;;6.25;;
80694;SDS011;70059;42.702;23.312;2024-01-10T00:33:39;6.90;;;6.20;;
80694;SDS011;70059;42.702;23.312;2024-01-10T00:36:05;6.82;;;6.10;;
80694;SDS011;70059;42.702;23.312;2024-01-10T00:38:32;8.68;;;6.50;;
80694;SDS011;70059;42.702;23.312;2024-01-10T00:40:57;8.57;;;6.95;;
80694;SDS011;70059;42.702;23.312;2024-01-10T00:43:23;9.65;;;6.57;;
80694;SDS011;70059;42.702;23.312;2024-01-10T00:45:49;9.85;;;7.50;;
80694;SDS011;70059;42.702;23.312;2024-01-10T00:48:15;8.30;;;6.13;;
80694;SDS011;70059;42.702;23.312;2024-01-10T00:50:42;9.30;;;6.55;;
80694;SDS011;70059;42.702;23.312;2024-01-10T00:53:09;9.00;;;6.18;;
80694;SDS011;70059;42.702;23.312;2024-01-10T00:55:35;9.65;;;6.45;;
80694;SDS011;70059;42.702;23.312;2024-01-10T00:58:01;9.57;;;6.55;;
80694;SDS011;70059;42.702;23.312;2024-01-10T01:00:26;8.45;;;7.05;;
80694;SDS011;70059;42.702;23.312;2024-01-10T01:02:52;8.65;;;7.18;;
80694;SDS011;70059;42.702;23.312;2024-01-10T01:05:18;9.07;;;6.43;;
80694;SDS011;70059;42.702;23.312;2024-01-10T01:07:44;12.77;;;7.00;;
80694;SDS011;70059;42.702;23.312;2024-01-10T01:10:09;7.55;;;6.85;;
80694;SDS011;70059;42.702;23.312;2024-01-10T01:12:35;7.70;;;6.50;;
80694;SDS011;70059;42.702;23.312;2024-01-10T01:15:04;9.13;;;6.53;;
80694;SDS011;70059;42.702;23.312;2024-01-10T01:17:30;8.48;;;6.50;;
80694;SDS011;70059;42.702;23.312;2024-01-10T01:19:59;7.45;;;6.72;;
80694;SDS011;70059;42.702;23.312;2024-01-10T01:22:25;6.70;;;5.95;;
80694;SDS011;70059;42.702;23.312;2024-01-10T01:24:51;8.73;;;7.43;;
80694;SDS011;70059;42.702;23.312;2024-01-10T01:27:22;6.80;;;6.15;;
80694;SDS011;70059;42.702;23.312;2024-01-10T01:29:48;7.00;;;6.05;;
80694;SDS011;70059;42.702;23.312;2024-01-10T01:32:14;8.13;;;6.40;;
80694;SDS011;70059;42.702;23.312;2024-01-10T01:34:40;6.72;;;6.03;;
80694;SDS011;70059;42.702;23.312;2024-01-10T01:37:06;7.03;;;6.32;;
80694;SDS011;70059;42.702;23.312;2024-01-10T01:39:31;8.77;;;6.68;;
80694;SDS011;70059;42.702;23.312;2024-01-10T01:41:57;6.95;;;6.25;;
80694;SDS011;70059;42.702;23.312;2024-01-10T01:44:23;7.13;;;6.40;;
80694;SDS011;70059;42.702;23.312;2024-01-10T01:46:49;7.78;;;6.95;;
80694;SDS011;70059;42.702;23.312;2024-01-10T01:49:15;8.68;;;7.10;;
80694;SDS011;70059;42.702;23.312;2024-01-10T01:51:41;10.38;;;7.13;;
80694;SDS011;70059;42.702;23.312;2024-01-10T01:54:07;10.18;;;6.93;;
80694;SDS011;70059;42.702;23.312;2024-01-10T01:56:35;7.38;;;6.68;;
80694;SDS011;70059;42.702;23.312;2024-01-10T01:59:02;11.43;;;7.10;;
80694;SDS011;70059;42.702;23.312;2024-01-10T02:01:29;7.32;;;6.50;;
80694;SDS011;70059;42.702;23.312;2024-01-10T02:03:55;7.60;;;6.20;;
80694;SDS011;70059;42.702;23.312;2024-01-10T02:06:21;8.57;;;6.85;;
80694;SDS011;70059;42.702;23.312;2024-01-10T02:08:47;7.60;;;6.80;;
80694;SDS011;70059;42.702;23.312;2024-01-10T02:11:13;7.97;;;6.03;;
80694;SDS011;70059;42.702;23.312;2024-01-10T02:13:38;6.65;;;5.93;;
80694;SDS011;70059;42.702;23.312;2024-01-10T02:16:06;7.60;;;5.43;;
80694;SDS011;70059;42.702;23.312;2024-01-10T02:18:32;7.25;;;5.72;;
80694;SDS011;70059;42.702;23.312;2024-01-10T02:21:00;7.57;;;5.90;;
80694;SDS011;70059;42.702;23.312;2024-01-10T02:23:26;7.45;;;6.20;;
80694;SDS011;70059;42.702;23.312;2024-01-10T02:25:51;7.07;;;6.38;;
80694;SDS011;70059;42.702;23.312;2024-01-10T02:28:20;7.95;;;6.38;;
80694;SDS011;70059;42.702;23.312;2024-01-10T02:30:48;6.60;;;5.85;;
80694;SDS011;70059;42.702;23.312;2024-01-10T02:33:15;8.05;;;6.70;;
80694;SDS011;70059;42.702;23.312;2024-01-10T02:35:41;7.65;;;6.50;;
80694;SDS011;70059;42.702;23.312;2024-01-10T02:38:07;6.75;;;6.15;;
80694;SDS011;70059;42.702;23.312;2024-01-10T02:40:33;6.80;;;6.13;;
80694;SDS011;70059;42.702;23.312;2024-01-10T02:42:58;7.43;;;6.07;;
80694;SDS011;70059;42.702;23.312;2024-01-10T02:45:24;7.10;;;6.35;;
80694;SDS011;70059;42.702;23.312;2024-01-10T02:47:50;7.57;;;6.28;;
80694;SDS011;70059;42.702;23.312;2024-01-10T02:50:18;11.05;;;6.85;;
80694;SDS011;70059;42.702;23.312;2024-01-10T02:52:44;9.70;;;6.47;;
80694;SDS011;70059;42.702;23.312;2024-01-10T02:55:10;7.00;;;6.30;;
80694;SDS011;70059;42.702;23.312;2024-01-10T02:57:36;7.57;;;6.43;;
80694;SDS011;70059;42.702;23.312;2024-01-10T03:00:02;7.15;;;5.72;;
80694;SDS011;70059;42.702;23.312;2024-01-10T03:02:30;6.10;;;5.57;;
80694;SDS011;70059;42.702;23.312;2024-01-10T03:04:56;8.38;;;6.07;;
80694;SDS011;70059;42.702;23.312;2024-01-10T03:07:22;7.47;;;6.53;;
80694;SDS011;70059;42.702;23.312;2024-01-10T03:09:50;7.03;;;6.25;;
80694;SDS011;70059;42.702;23.312;2024-01-10T03:12:18;7.40;;;6.10;;
80694;SDS011;70059;42.702;23.312;2024-01-10T03:14:46;7.38;;;6.30;;
80694;SDS011;70059;42.702;23.312;2024-01-10T03:17:12;6.80;;;6.07;;
80694;SDS011;70059;42.702;23.312;2024-01-10T03:19:38;7.50;;;5.93;;
80694;SDS011;70059;42.702;23.312;2024-01-10T03:22:09;7.83;;;6.53;;
80694;SDS011;70059;42.702;23.312;2024-01-10T03:24:36;12.15;;;7.30;;
80694;SDS011;70059;42.702;23.312;2024-01-10T03:27:02;8.98;;;6.47;;
80694;SDS011;70059;42.702;23.312;2024-01-10T03:29:29;6.00;;;5.43;;
80694;SDS011;70059;42.702;23.312;2024-01-10T03:31:55;8.02;;;6.18;;
80694;SDS011;70059;42.702;23.312;2024-01-10T03:34:21;7.72;;;6.22;;
80694;SDS011;70059;42.702;23.312;2024-01-10T03:36:47;8.57;;;6.20;;
80694;SDS011;70059;42.702;23.312;2024-01-10T03:39:13;7.65;;;6.78;;
80694;SDS011;70059;42.702;23.312;2024-01-10T03:41:39;8.18;;;6.63;;
80694;SDS011;70059;42.702;23.312;2024-01-10T03:44:05;8.05;;;6.80;;
80694;SDS011;70059;42.702;23.312;2024-01-10T03:46:30;9.43;;;8.07;;
80694;SDS011;70059;42.702;23.312;2024-01-10T03:48:56;8.30;;;7.45;;
80694;SDS011;70059;42.702;23.312;2024-01-10T03:51:22;9.15;;;7.00;;
80694;SDS011;70059;42.702;23.312;2024-01-10T03:53:48;7.50;;;6.22;;
80694;SDS011;70059;42.702;23.312;2024-01-10T03:56:14;8.18;;;6.57;;
80694;SDS011;70059;42.702;23.312;2024-01-10T03:58:40;9.55;;;7.05;;
80694;SDS011;70059;42.702;23.312;2024-01-10T04:01:09;8.07;;;6.35;;
80694;SDS011;70059;42.702;23.312;2024-01-10T04:03:35;9.73;;;6.20;;
80694;SDS011;70059;42.702;23.312;2024-01-10T04:06:01;16.00;;;8.32;;
80694;SDS011;70059;42.702;23.312;2024-01-10T04:08:27;9.70;;;6.20;;
80694;SDS011;70059;42.702;23.312;2024-01-10T04:10:54;8.57;;;6.15;;
80694;SDS011;70059;42.702;23.312;2024-01-10T04:13:19;8.02;;;6.20;;
80694;SDS011;70059;42.702;23.312;2024-01-10T04:15:45;7.10;;;5.93;;
80694;SDS011;70059;42.702;23.312;2024-01-10T04:18:11;7.15;;;5.60;;
80694;SDS011;70059;42.702;23.312;2024-01-10T04:20:41;6.20;;;5.57;;
80694;SDS011;70059;42.702;23.312;2024-01-10T04:23:09;7.70;;;5.50;;
80694;SDS011;70059;42.702;23.312;2024-01-10T04:25:34;6.03;;;5.40;;
80694;SDS011;70059;42.702;23.312;2024-01-10T04:28:00;6.03;;;5.20;;
80694;SDS011;70059;42.702;23.312;2024-01-10T04:30:27;8.77;;;5.78;;
80694;SDS011;70059;42.702;23.312;2024-01-10T04:32:53;11.05;;;5.80;;
80694;SDS011;70059;42.702;23.312;2024-01-10T04:35:19;8.13;;;6.35;;
80694;SDS011;70059;42.702;23.312;2024-01-10T04:37:45;7.22;;;5.75;;
80694;SDS011;70059;42.702;23.312;2024-01-10T04:43:32;10.77;;;6.95;;
80694;SDS011;70059;42.702;23.312;2024-01-10T04:45:58;9.75;;;5.90;;
80694;SDS011;70059;42.702;23.312;2024-01-10T04:48:24;8.70;;;5.85;;
80694;SDS011;70059;42.702;23.312;2024-01-10T04:50:49;6.97;;;5.82;;
80694;SDS011;70059;42.702;23.312;2024-01-10T04:53:15;10.68;;;5.70;;
80694;SDS011;70059;42.702;23.312;2024-01-10T04:55:44;6.22;;;4.80;;
80694;SDS011;70059;42.702;23.312;2024-01-10T04:58:13;7.47;;;5.57;;
80694;SDS011;70059;42.702;23.312;2024-01-10T05:00:41;6.40;;;5.45;;
80694;SDS011;70059;42.702;23.312;2024-01-10T05:03:07;6.70;;;5.82;;
80694;SDS011;70059;42.702;23.312;2024-01-10T05:05:33;9.27;;;5.78;;
80694;SDS011;70059;42.702;23.312;2024-01-10T05:07:59;9.80;;;6.28;;
80694;SDS011;70059;42.702;23.312;2024-01-10T05:10:37;7.78;;;6.82;;
80694;SDS011;70059;42.702;23.312;2024-01-10T05:13:15;9.27;;;6.25;;
80694;SDS011;70059;42.702;23.312;2024-01-10T05:18:16;11.27;;;6.20;;
80694;SDS011;70059;42.702;23.312;2024-01-10T05:20:43;10.70;;;6.32;;
80694;SDS011;70059;42.702;23.312;2024-01-10T05:23:09;7.88;;;6.55;;
80694;SDS011;70059;42.702;23.312;2024-01-10T05:25:36;10.30;;;5.90;;
80694;SDS011;70059;42.702;23.312;2024-01-10T05:28:09;7.78;;;5.60;;
80694;SDS011;70059;42.702;23.312;2024-01-10T05:30:35;7.22;;;5.15;;
80694;SDS011;70059;42.702;23.312;2024-01-10T05:33:00;8.55;;;6.18;;
80694;SDS011;70059;42.702;23.312;2024-01-10T05:35:26;7.03;;;5.50;;
80694;SDS011;70059;42.702;23.312;2024-01-10T05:37:53;10.25;;;5.32;;
80694;SDS011;70059;42.702;23.312;2024-01-10T05:40:20;7.65;;;4.90;;
80694;SDS011;70059;42.702;23.312;2024-01-10T05:42:46;7.68;;;4.75;;
80694;SDS011;70059;42.702;23.312;2024-01-10T05:45:11;7.30;;;5.65;;
80694;SDS011;70059;42.702;23.312;2024-01-10T05:47:37;7.72;;;5.35;;
80694;SDS011;70059;42.702;23.312;2024-01-10T05:50:03;7.00;;;5.40;;
80694;SDS011;70059;42.702;23.312;2024-01-10T05:52:32;7.68;;;5.22;;
80694;SDS011;70059;42.702;23.312;2024-01-10T05:54:58;8.48;;;4.95;;
80694;SDS011;70059;42.702;23.312;2024-01-10T05:57:26;8.50;;;5.30;;
80694;SDS011;70059;42.702;23.312;2024-01-10T05:59:52;18.73;;;13.85;;
80694;SDS011;70059;42.702;23.312;2024-01-10T06:02:22;8.60;;;6.35;;
80694;SDS011;70059;42.702;23.312;2024-01-10T06:04:49;7.22;;;4.88;;
80694;SDS011;70059;42.702;23.312;2024-01-10T06:07:15;11.57;;;7.20;;
80694;SDS011;70059;42.702;23.312;2024-01-10T06:09:41;10.82;;;6.63;;
80694;SDS011;70059;42.702;23.312;2024-01-10T06:12:08;8.00;;;5.85;;
80694;SDS011;70059;42.702;23.312;2024-01-10T06:14:41;9.40;;;6.80;;
80694;SDS011;70059;42.702;23.312;2024-01-10T06:19:42;9.90;;;6.65;;
80694;SDS011;70059;42.702;23.312;2024-01-10T06:22:08;8.70;;;6.05;;
80694;SDS011;70059;42.702;23.312;2024-01-10T06:24:43;7.50;;;6.30;;
80694;SDS011;70059;42.702;23.312;2024-01-10T06:27:09;8.38;;;5.72;;
80694;SDS011;70059;42.702;23.312;2024-01-10T06:29:36;10.60;;;6.10;;
80694;SDS011;70059;42.702;23.312;2024-01-10T06:32:04;12.90;;;7.10;;
80694;SDS011;70059;42.702;23.312;2024-01-10T06:34:31;9.30;;;5.63;;
80694;SDS011;70059;42.702;23.312;2024-01-10T06:37:04;12.23;;;7.13;;
80694;SDS011;70059;42.702;23.312;2024-01-10T06:39:34;11.98;;;6.07;;
80694;SDS011;70059;42.702;23.312;2024-01-10T06:42:00;10.10;;;7.07;;
80694;SDS011;70059;42.702;23.312;2024-01-10T06:44:28;10.30;;;6.85;;
80694;SDS011;70059;42.702;23.312;2024-01-10T06:46:55;11.25;;;8.07;;
80694;SDS011;70059;42.702;23.312;2024-01-10T06:49:20;19.25;;;8.75;;
80694;SDS011;70059;42.702;23.312;2024-01-10T06:51:46;16.70;;;8.02;;
80694;SDS011;70059;42.702;23.312;2024-01-10T06:54:12;14.98;;;7.85;;
80694;SDS011;70059;42.702;23.312;2024-01-10T06:56:39;14.23;;;7.30;;
80694;SDS011;70059;42.702;23.312;2024-01-10T06:59:04;12.68;;;6.70;;
80694;SDS011;70059;42.702;23.312;2024-01-10T07:01:30;16.08;;;8.65;;
80694;SDS011;70059;42.702;23.312;2024-01-10T07:03:56;13.48;;;7.57;;
80694;SDS011;70059;42.702;23.312;2024-01-10T07:06:21;12.75;;;6.57;;
80694;SDS011;70059;42.702;23.312;2024-01-10T07:08:55;14.75;;;7.30;;
80694;SDS011;70059;42.702;23.312;2024-01-10T07:11:21;12.52;;;7.78;;
80694;SDS011;70059;42.702;23.312;2024-01-10T07:13:47;15.05;;;7.30;;
80694;SDS011;70059;42.702;23.312;2024-01-10T07:16:13;12.85;;;8.40;;
80694;SDS011;70059;42.702;23.312;2024-01-10T07:18:42;15.13;;;7.20;;
80694;SDS011;70059;42.702;23.312;2024-01-10T07:21:09;14.52;;;7.68;;
80694;SDS011;70059;42.702;23.312;2024-01-10T07:23:35;17.80;;;8.02;;
80694;SDS011;70059;42.702;23.312;2024-01-10T07:26:09;11.50;;;7.03;;
80694;SDS011;70059;42.702;23.312;2024-01-10T07:28:39;8.30;;;6.55;;
80694;SDS011;70059;42.702;23.312;2024-01-10T07:31:04;8.60;;;6.63;;
80694;SDS011;70059;42.702;23.312;2024-01-10T07:33:30;10.52;;;6.75;;
80694;SDS011;70059;42.702;23.312;2024-01-10T07:35:57;14.15;;;7.78;;
80694;SDS011;70059;42.702;23.312;2024-01-10T07:38:23;16.02;;;7.88;;
80694;SDS011;70059;42.702;23.312;2024-01-10T07:40:49;12.07;;;7.70;;
80694;SDS011;70059;42.702;23.312;2024-01-10T07:43:18;11.98;;;7.22;;
80694;SDS011;70059;42.702;23.312;2024-01-10T07:45:44;8.13;;;6.70;;
80694;SDS011;70059;42.702;23.312;2024-01-10T07:48:10;9.13;;;6.85;;
80694;SDS011;70059;42.702;23.312;2024-01-10T07:50:36;17.27;;;9.82;;
80694;SDS011;70059;42.702;23.312;2024-01-10T07:53:01;12.55;;;8.73;;
80694;SDS011;70059;42.702;23.312;2024-01-10T07:55:27;10.45;;;7.22;;
80694;SDS011;70059;42.702;23.312;2024-01-10T07:57:56;10.77;;;7.43;;
80694;SDS011;70059;42.702;23.312;2024-01-10T08:00:22;9.90;;;7.50;;
80694;SDS011;70059;42.702;23.312;2024-01-10T08:02:47;17.63;;;8.90;;
80694;SDS011;70059;42.702;23.312;2024-01-10T08:05:18;70.30;;;27.45;;
80694;SDS011;70059;42.702;23.312;2024-01-10T08:07:46;21.73;;;11.65;;
80694;SDS011;70059;42.702;23.312;2024-01-10T08:10:13;19.08;;;10.50;;
80694;SDS011;70059;42.702;23.312;2024-01-10T08:12:40;12.10;;;8.63;;
80694;SDS011;70059;42.702;23.312;2024-01-10T08:15:09;14.73;;;8.48;;
80694;SDS011;70059;42.702;23.312;2024-01-10T08:17:35;12.63;;;8.90;;
80694;SDS011;70059;42.702;23.312;2024-01-10T08:20:03;13.80;;;8.27;;
80694;SDS011;70059;42.702;23.312;2024-01-10T08:22:31;15.00;;;7.93;;
80694;SDS011;70059;42.702;23.312;2024-01-10T08:24:57;11.98;;;8.10;;
80694;SDS011;70059;42.702;23.312;2024-01-10T08:27:22;10.32;;;8.32;;
80694;SDS011;70059;42.702;23.312;2024-01-10T08:29:48;15.02;;;9.65;;
80694;SDS011;70059;42.702;23.312;2024-01-10T08:32:14;9.02;;;7.05;;
80694;SDS011;70059;42.702;23.312;2024-01-10T08:34:46;9.43;;;6.97;;
80694;SDS011;70059;42.702;23.312;2024-01-10T08:37:13;14.25;;;7.03;;
80694;SDS011;70059;42.702;23.312;2024-01-10T08:39:42;8.15;;;6.75;;
80694;SDS011;70059;42.702;23.312;2024-01-10T08:42:09;13.07;;;6.82;;
80694;SDS011;70059;42.702;23.312;2024-01-10T08:44:35;9.85;;;8.45;;
80694;SDS011;70059;42.702;23.312;2024-01-10T08:47:01;11.40;;;9.20;;
80694;SDS011;70059;42.702;23.312;2024-01-10T08:49:26;9.93;;;8.38;;
80694;SDS011;70059;42.702;23.312;2024-01-10T08:51:52;10.05;;;8.75;;
80694;SDS011;70059;42.702;23.312;2024-01-10T08:54:18;12.35;;;9.82;;
80694;SDS011;70059;42.702;23.312;2024-01-10T08:56:48;12.35;;;9.85;;
80694;SDS011;70059;42.702;23.312;2024-01-10T08:59:13;10.65;;;8.82;;
80694;SDS011;70059;42.702;23.312;2024-01-10T09:01:39;15.77;;;11.38;;
80694;SDS011;70059;42.702;23.312;2024-01-10T09:04:05;11.40;;;10.15;;
80694;SDS011;70059;42.702;23.312;2024-01-10T09:06:32;13.40;;;10.80;;
80694;SDS011;70059;42.702;23.312;2024-01-10T09:09:04;15.88;;;12.00;;
80694;SDS011;70059;42.702;23.312;2024-01-10T09:11:30;12.50;;;10.80;;
80694;SDS011;70059;42.702;23.312;2024-01-10T09:13:56;13.05;;;10.40;;
80694;SDS011;70059;42.702;23.312;2024-01-10T09:16:21;10.43;;;8.88;;
80694;SDS011;70059;42.702;23.312;2024-01-10T09:18:47;12.45;;;9.85;;
80694;SDS011;70059;42.702;23.312;2024-01-10T09:21:14;10.20;;;9.05;;
80694;SDS011;70059;42.702;23.312;2024-01-10T09:23:40;13.45;;;9.77;;
80694;SDS011;70059;42.702;23.312;2024-01-10T09:26:07;13.35;;;11.15;;
80694;SDS011;70059;42.702;23.312;2024-01-10T09:28:33;13.63;;;10.93;;
80694;SDS011;70059;42.702;23.312;2024-01-10T09:30:59;12.50;;;10.60;;
80694;SDS011;70059;42.702;23.312;2024-01-10T09:33:25;14.13;;;11.20;;
80694;SDS011;70059;42.702;23.312;2024-01-10T09:35:50;13.77;;;10.02;;
80694;SDS011;70059;42.702;23.312;2024-01-10T09:38:16;13.77;;;10.95;;
80694;SDS011;70059;42.702;23.312;2024-01-10T09:40:42;15.13;;;11.02;;
80694;SDS011;70059;42.702;23.312;2024-01-10T09:43:08;17.15;;;12.15;;
80694;SDS011;70059;42.702;23.312;2024-01-10T09:45:34;19.52;;;11.10;;
80694;SDS011;70059;42.702;23.312;2024-01-10T09:48:01;13.32;;;11.07;;
80694;SDS011;70059;42.702;23.312;2024-01-10T09:50:27;15.68;;;12.00;;
80694;SDS011;70059;42.702;23.312;2024-01-10T09:52:54;12.27;;;10.57;;
80694;SDS011;70059;42.702;23.312;2024-01-10T09:55:29;21.23;;;13.35;;
80694;SDS011;70059;42.702;23.312;2024-01-10T09:58:01;19.70;;;15.27;;
80694;SDS011;70059;42.702;23.312;2024-01-10T10:00:30;18.50;;;12.25;;
80694;SDS011;70059;42.702;23.312;2024-01-10T10:02:56;12.20;;;10.52;;
80694;SDS011;70059;42.702;23.312;2024-01-10T10:05:24;12.50;;;11.20;;
80694;SDS011;70059;42.702;23.312;2024-01-10T10:07:50;12.63;;;11.23;;
80694;SDS011;70059;42.702;23.312;2024-01-10T10:10:18;14.38;;;12.00;;
80694;SDS011;70059;42.702;23.312;2024-01-10T10:12:52;13.00;;;11.25;;
80694;SDS011;70059;42.702;23.312;2024-01-10T10:15:21;16.95;;;13.38;;
80694;SDS011;70059;42.702;23.312;2024-01-10T10:17:48;18.03;;;14.53;;
80694;SDS011;70059;42.702;23.312;2024-01-10T10:20:21;13.88;;;12.35;;
80694;SDS011;70059;42.702;23.312;2024-01-10T10:23:11;14.50;;;12.15;;
80694;SDS011;70059;42.702;23.312;2024-01-10T10:25:42;16.23;;;12.57;;
80694;SDS011;70059;42.702;23.312;2024-01-10T10:28:09;13.52;;;11.90;;
80694;SDS011;70059;42.702;23.312;2024-01-10T10:30:35;19.23;;;13.02;;
80694;SDS011;70059;42.702;23.312;2024-01-10T10:33:01;13.85;;;12.00;;
80694;SDS011;70059;42.702;23.312;2024-01-10T10:35:27;16.08;;;12.82;;
80694;SDS011;70059;42.702;23.312;2024-01-10T10:37:53;17.50;;;12.95;;
80694;SDS011;70059;42.702;23.312;2024-01-10T10:40:19;17.52;;;13.57;;
80694;SDS011;70059;42.702;23.312;2024-01-10T10:42:54;15.48;;;11.50;;
80694;SDS011;70059;42.702;23.312;2024-01-10T10:45:21;15.13;;;11.98;;
80694;SDS011;70059;42.702;23.312;2024-01-10T10:48:00;17.02;;;12.15;;
80694;SDS011;70059;42.702;23.312;2024-01-10T10:50:32;19.55;;;13.85;;
80694;SDS011;70059;42.702;23.312;2024-01-10T10:53:00;20.00;;;13.00;;
80694;SDS011;70059;42.702;23.312;2024-01-10T10:55:28;23.65;;;15.07;;
80694;SDS011;70059;42.702;23.312;2024-01-10T10:57:54;20.75;;;14.50;;
80694;SDS011;70059;42.702;23.312;2024-01-10T11:00:23;25.85;;;17.65;;
80694;SDS011;70059;42.702;23.312;2024-01-10T11:02:58;16.40;;;13.88;;
80694;SDS011;70059;42.702;23.312;2024-01-10T11:05:26;19.95;;;13.05;;
80694;SDS011;70059;42.702;23.312;2024-01-10T11:07:53;19.17;;;14.48;;
80694;SDS011;70059;42.702;23.312;2024-01-10T11:10:20;24.10;;;14.70;;
80694;SDS011;70059;42.702;23.312;2024-01-10T11:20:53;17.17;;;14.25;;
80694;SDS011;70059;42.702;23.312;2024-01-10T11:32:04;22.92;;;14.25;;
80694;SDS011;70059;42.702;23.312;2024-01-10T11:34:30;19.90;;;13.93;;
80694;SDS011;70059;42.702;23.312;2024-01-10T11:37:14;19.85;;;14.35;;
80694;SDS011;70059;42.702;23.312;2024-01-10T11:39:41;20.90;;;14.77;;
80694;SDS011;70059;42.702;23.312;2024-01-10T11:42:10;19.00;;;13.70;;
80694;SDS011;70059;42.702;23.312;2024-01-10T11:44:48;23.83;;;14.65;;
80694;SDS011;70059;42.702;23.312;2024-01-10T11:47:15;18.25;;;13.20;;
80694;SDS011;70059;42.702;23.312;2024-01-10T11:50:02;15.57;;;12.90;;
80694;SDS011;70059;42.702;23.312;2024-01-10T11:52:34;25.13;;;16.50;;
80694;SDS011;70059;42.702;23.312;2024-01-10T11:55:01;18.45;;;12.88;;
80694;SDS011;70059;42.702;23.312;2024-01-10T11:57:28;24.13;;;13.38;;
80694;SDS011;70059;42.702;23.312;2024-01-10T11:59:57;23.02;;;15.32;;
80694;SDS011;70059;42.702;23.312;2024-01-10T12:02:25;21.90;;;14.82;;
80694;SDS011;70059;42.702;23.312;2024-01-10T12:04:52;21.52;;;14.38;;
80694;SDS011;70059;42.702;23.312;2024-01-10T12:07:24;24.85;;;16.27;;
80694;SDS011;70059;42.702;23.312;2024-01-10T12:09:50;21.38;;;14.23;;
80694;SDS011;70059;42.702;23.312;2024-01-10T12:12:16;24.58;;;14.48;;
80694;SDS011;70059;42.702;23.312;2024-01-10T12:14:42;18.48;;;13.63;;
80694;SDS011;70059;42.702;23.312;2024-01-10T12:17:09;22.95;;;14.48;;
80694;SDS011;70059;42.702;23.312;2024-01-10T12:19:35;23.10;;;15.45;;
80694;SDS011;70059;42.702;23.312;2024-01-10T12:22:04;22.20;;;14.25;;
80694;SDS011;70059;42.702;23.312;2024-01-10T12:24:33;22.35;;;13.63;;
80694;SDS011;70059;42.702;23.312;2024-01-10T12:27:04;17.73;;;13.70;;
80694;SDS011;70059;42.702;23.312;2024-01-10T12:29:30;22.25;;;14.52;;
80694;SDS011;70059;42.702;23.312;2024-01-10T12:31:56;24.73;;;14.93;;
80694;SDS011;70059;42.702;23.312;2024-01-10T12:34:29;20.25;;;13.98;;
80694;SDS011;70059;42.702;23.312;2024-01-10T12:36:55;25.02;;;14.55;;
80694;SDS011;70059;42.702;23.312;2024-01-10T12:39:20;22.98;;;15.68;;
80694;SDS011;70059;42.702;23.312;2024-01-10T12:41:48;21.35;;;16.10;;
80694;SDS011;70059;42.702;23.312;2024-01-10T12:44:15;22.33;;;15.93;;
80694;SDS011;70059;42.702;23.312;2024-01-10T12:46:51;42.65;;;23.17;;
80694;SDS011;70059;42.702;23.312;2024-01-10T12:49:17;28.55;;;16.98;;
80694;SDS011;70059;42.702;23.312;2024-01-10T12:51:43;31.85;;;18.92;;
80694;SDS011;70059;42.702;23.312;2024-01-10T12:54:09;20.90;;;15.13;;
80694;SDS011;70059;42.702;23.312;2024-01-10T12:56:35;21.70;;;15.18;;
80694;SDS011;70059;42.702;23.312;2024-01-10T12:59:02;21.40;;;14.82;;
80694;SDS011;70059;42.702;23.312;2024-01-10T13:01:28;19.73;;;15.50;;
80694;SDS011;70059;42.702;23.312;2024-01-10T13:03:54;25.23;;;15.98;;
80694;SDS011;70059;42.702;23.312;2024-01-10T13:06:21;27.02;;;15.88;;
80694;SDS011;70059;42.702;23.312;2024-01-10T13:08:47;26.58;;;18.33;;
80694;SDS011;70059;42.702;23.312;2024-01-10T13:11:13;25.77;;;18.33;;
80694;SDS011;70059;42.702;23.312;2024-01-10T13:13:40;23.13;;;15.57;;
80694;SDS011;70059;42.702;23.312;2024-01-10T13:16:06;24.92;;;13.70;;
80694;SDS011;70059;42.702;23.312;2024-01-10T13:18:35;17.77;;;14.45;;
80694;SDS011;70059;42.702;23.312;2024-01-10T13:21:08;22.80;;;15.57;;
80694;SDS011;70059;42.702;23.312;2024-01-10T13:23:35;18.92;;;14.50;;
80694;SDS011;70059;42.702;23.312;2024-01-10T13:26:01;21.88;;;14.20;;
80694;SDS011;70059;42.702;23.312;2024-01-10T13:28:27;22.17;;;14.95;;
80694;SDS011;70059;42.702;23.312;2024-01-10T13:30:53;20.08;;;13.80;;
80694;SDS011;70059;42.702;23.312;2024-01-10T13:33:21;22.25;;;14.73;;
80694;SDS011;70059;42.702;23.312;2024-01-10T13:35:47;19.33;;;13.98;;
80694;SDS011;70059;42.702;23.312;2024-01-10T13:38:14;16.75;;;13.32;;
80694;SDS011;70059;42.702;23.312;2024-01-10T13:40:40;19.08;;;13.80;;
80694;SDS011;70059;42.702;23.312;2024-01-10T13:43:06;20.27;;;14.63;;
80694;SDS011;70059;42.702;23.312;2024-01-10T13:45:32;28.23;;;20.08;;
80694;SDS011;70059;42.702;23.312;2024-01-10T13:47:58;24.70;;;16.92;;
80694;SDS011;70059;42.702;23.312;2024-01-10T13:50:25;24.83;;;17.23;;
80694;SDS011;70059;42.702;23.312;2024-01-10T13:52:52;24.33;;;14.88;;
80694;SDS011;70059;42.702;23.312;2024-01-10T13:55:18;23.30;;;17.50;;
80694;SDS011;70059;42.702;23.312;2024-01-10T13:57:44;27.65;;;18.40;;
80694;SDS011;70059;42.702;23.312;2024-01-10T14:00:10;39.25;;;23.27;;
80694;SDS011;70059;42.702;23.312;2024-01-10T14:02:39;30.20;;;18.50;;
80694;SDS011;70059;42.702;23.312;2024-01-10T14:05:06;28.52;;;21.38;;
80694;SDS011;70059;42.702;23.312;2024-01-10T14:07:32;34.20;;;16.67;;
80694;SDS011;70059;42.702;23.312;2024-01-10T14:10:06;24.13;;;15.43;;
80694;SDS011;70059;42.702;23.312;2024-01-10T14:12:32;21.23;;;14.68;;
80694;SDS011;70059;42.702;23.312;2024-01-10T14:14:58;24.83;;;14.13;;
80694;SDS011;70059;42.702;23.312;2024-01-10T14:17:25;25.05;;;17.23;;
80694;SDS011;70059;42.702;23.312;2024-01-10T14:19:57;22.40;;;14.85;;
80694;SDS011;70059;42.702;23.312;2024-01-10T14:22:23;20.40;;;15.25;;
80694;SDS011;70059;42.702;23.312;2024-01-10T14:24:50;19.50;;;14.15;;
80694;SDS011;70059;42.702;23.312;2024-01-10T14:27:16;20.33;;;13.60;;
80694;SDS011;70059;42.702;23.312;2024-01-10T14:29:41;22.27;;;13.80;;
80694;SDS011;70059;42.702;23.312;2024-01-10T14:32:07;19.63;;;14.30;;
80694;SDS011;70059;42.702;23.312;2024-01-10T14:34:33;22.67;;;13.60;;
80694;SDS011;70059;42.702;23.312;2024-01-10T14:36:59;20.35;;;14.23;;
80694;SDS011;70059;42.702;23.312;2024-01-10T14:39:24;21.98;;;14.95;;
80694;SDS011;70059;42.702;23.312;2024-01-10T14:41:50;27.02;;;15.32;;
80694;SDS011;70059;42.702;23.312;2024-01-10T14:44:16;23.00;;;13.80;;
80694;SDS011;70059;42.702;23.312;2024-01-10T14:46:41;25.38;;;14.27;;